Terminal Aerodrome Forecast
Issued by NWS

Home | Current Version | Previous Version | Text Only | Print | Product List | Glossary On
Versions: 1 2 3 4 5 6 7 8 9 10 11 12 13 14 15 16 17 18 19 20 21 22 23 24 25 26 27 28 29 30 31 32 33 34
000
FTUS43 KGRB 180411 AAB
TAFRHI
TAF AMD
KRHI 180411Z 1804/1824 26005KT P6SM SCT002
     FM180600 26003KT 1/2SM FG OVC002
     FM181400 22008KT 3SM BR BKN005
     FM181700 22009KT P6SM SCT012=

USA.gov is the U.S. government's official web portal to all federal, state and local government web resources and services.